sensor_id;sensor_type;location;lat;lon;timestamp;pressure;altitude;pressure_sealevel;temperature;humidity
61018;BME280;48171;51.550;5.434;2023-01-20T00:01:07;101087.31;;;0.63;100.00
61018;BME280;48171;51.550;5.434;2023-01-20T00:03:34;101083.91;;;0.64;100.00
61018;BME280;48171;51.550;5.434;2023-01-20T00:05:59;101088.09;;;0.60;100.00
61018;BME280;48171;51.550;5.434;2023-01-20T00:08:24;101097.69;;;0.61;100.00
61018;BME280;48171;51.550;5.434;2023-01-20T00:10:50;101103.78;;;0.62;100.00
61018;BME280;48171;51.550;5.434;2023-01-20T00:13:15;101103.72;;;0.60;100.00
61018;BME280;48171;51.550;5.434;2023-01-20T00:15:40;101102.13;;;0.64;100.00
61018;BME280;48171;51.550;5.434;2023-01-20T00:18:06;101104.59;;;0.60;100.00
61018;BME280;48171;51.550;5.434;2023-01-20T00:20:31;101111.44;;;0.58;100.00
61018;BME280;48171;51.550;5.434;2023-01-20T00:22:56;101111.41;;;0.57;100.00
61018;BME280;48171;51.550;5.434;2023-01-20T00:25:21;101114.00;;;0.57;100.00
61018;BME280;48171;51.550;5.434;2023-01-20T00:27:47;101112.28;;;0.57;100.00
61018;BME280;48171;51.550;5.434;2023-01-20T00:30:12;101116.59;;;0.57;100.00
61018;BME280;48171;51.550;5.434;2023-01-20T00:32:39;101125.38;;;0.60;100.00
61018;BME280;48171;51.550;5.434;2023-01-20T00:35:09;101130.56;;;0.59;100.00
61018;BME280;48171;51.550;5.434;2023-01-20T00:37:34;101125.34;;;0.59;100.00
61018;BME280;48171;51.550;5.434;2023-01-20T00:40:00;101118.38;;;0.58;100.00
61018;BME280;48171;51.550;5.434;2023-01-20T00:42:25;101123.56;;;0.58;100.00
61018;BME280;48171;51.550;5.434;2023-01-20T00:44:50;101135.03;;;0.63;100.00
61018;BME280;48171;51.550;5.434;2023-01-20T00:47:15;101128.91;;;0.61;100.00
61018;BME280;48171;51.550;5.434;2023-01-20T00:49:41;101130.47;;;0.57;100.00
61018;BME280;48171;51.550;5.434;2023-01-20T00:52:06;101134.13;;;0.63;100.00
61018;BME280;48171;51.550;5.434;2023-01-20T00:54:31;101128.13;;;0.64;100.00
61018;BME280;48171;51.550;5.434;2023-01-20T00:56:57;101127.09;;;0.60;100.00
61018;BME280;48171;51.550;5.434;2023-01-20T00:59:22;101126.28;;;0.61;100.00
61018;BME280;48171;51.550;5.434;2023-01-20T01:01:47;101133.19;;;0.60;100.00
61018;BME280;48171;51.550;5.434;2023-01-20T01:04:12;101128.75;;;0.58;100.00
61018;BME280;48171;51.550;5.434;2023-01-20T01:06:38;101136.63;;;0.59;100.00
61018;BME280;48171;51.550;5.434;2023-01-20T01:09:04;101128.66;;;0.55;100.00
61018;BME280;48171;51.550;5.434;2023-01-20T01:11:29;101138.28;;;0.57;100.00
61018;BME280;48171;51.550;5.434;2023-01-20T01:13:55;101144.38;;;0.58;100.00
61018;BME280;48171;51.550;5.434;2023-01-20T01:16:21;101143.41;;;0.56;100.00
61018;BME280;48171;51.550;5.434;2023-01-20T01:18:47;101145.94;;;0.54;100.00
61018;BME280;48171;51.550;5.434;2023-01-20T01:21:14;101153.75;;;0.54;100.00
61018;BME280;48171;51.550;5.434;2023-01-20T01:23:40;101161.50;;;0.53;100.00
61018;BME280;48171;51.550;5.434;2023-01-20T01:26:06;101160.56;;;0.51;100.00
61018;BME280;48171;51.550;5.434;2023-01-20T01:28:31;101155.06;;;0.43;100.00
61018;BME280;48171;51.550;5.434;2023-01-20T01:31:01;101170.91;;;0.49;100.00
61018;BME280;48171;51.550;5.434;2023-01-20T01:33:27;101162.16;;;0.47;100.00
61018;BME280;48171;51.550;5.434;2023-01-20T01:35:54;101164.59;;;0.43;100.00
61018;BME280;48171;51.550;5.434;2023-01-20T01:38:20;101153.28;;;0.42;100.00
61018;BME280;48171;51.550;5.434;2023-01-20T01:40:49;101166.34;;;0.44;100.00
61018;BME280;48171;51.550;5.434;2023-01-20T01:43:23;101168.13;;;0.45;100.00
61018;BME280;48171;51.550;5.434;2023-01-20T01:45:49;101170.75;;;0.46;100.00
61018;BME280;48171;51.550;5.434;2023-01-20T01:48:15;101171.69;;;0.47;100.00
61018;BME280;48171;51.550;5.434;2023-01-20T01:50:55;101180.59;;;0.53;100.00
61018;BME280;48171;51.550;5.434;2023-01-20T01:53:24;101178.78;;;0.51;100.00
61018;BME280;48171;51.550;5.434;2023-01-20T01:55:56;101181.38;;;0.51;100.00
61018;BME280;48171;51.550;5.434;2023-01-20T01:58:27;101185.84;;;0.55;100.00
61018;BME280;48171;51.550;5.434;2023-01-20T02:00:53;101178.16;;;0.58;100.00
61018;BME280;48171;51.550;5.434;2023-01-20T02:03:19;101174.75;;;0.59;100.00
61018;BME280;48171;51.550;5.434;2023-01-20T02:05:47;101187.75;;;0.59;100.00
61018;BME280;48171;51.550;5.434;2023-01-20T02:08:14;101183.34;;;0.58;100.00
61018;BME280;48171;51.550;5.434;2023-01-20T02:10:39;101177.22;;;0.56;100.00
61018;BME280;48171;51.550;5.434;2023-01-20T02:13:05;101178.88;;;0.54;100.00
61018;BME280;48171;51.550;5.434;2023-01-20T02:15:47;101174.50;;;0.53;100.00
61018;BME280;48171;51.550;5.434;2023-01-20T02:23:49;101174.75;;;0.59;100.00
61018;BME280;48171;51.550;5.434;2023-01-20T02:26:41;101171.19;;;0.57;100.00
61018;BME280;48171;51.550;5.434;2023-01-20T02:31:46;101187.75;;;0.59;100.00
61018;BME280;48171;51.550;5.434;2023-01-20T02:34:14;101185.16;;;0.59;100.00
61018;BME280;48171;51.550;5.434;2023-01-20T02:37:07;101188.69;;;0.61;100.00
61018;BME280;48171;51.550;5.434;2023-01-20T02:42:12;101190.13;;;0.53;100.00
61018;BME280;48171;51.550;5.434;2023-01-20T02:44:50;101191.81;;;0.52;100.00
61018;BME280;48171;51.550;5.434;2023-01-20T02:47:22;101190.84;;;0.50;100.00
61018;BME280;48171;51.550;5.434;2023-01-20T02:52:34;101183.34;;;0.58;100.00
61018;BME280;48171;51.550;5.434;2023-01-20T02:55:05;101186.66;;;0.54;100.00
61018;BME280;48171;51.550;5.434;2023-01-20T02:57:45;101195.25;;;0.51;100.00
61018;BME280;48171;51.550;5.434;2023-01-20T03:00:19;101194.16;;;0.46;100.00
61018;BME280;48171;51.550;5.434;2023-01-20T03:02:49;101188.16;;;0.47;100.00
61018;BME280;48171;51.550;5.434;2023-01-20T03:05:29;101186.50;;;0.49;100.00
61018;BME280;48171;51.550;5.434;2023-01-20T03:07:58;101188.22;;;0.49;100.00
61018;BME280;48171;51.550;5.434;2023-01-20T03:10:28;101191.69;;;0.49;100.00
61018;BME280;48171;51.550;5.434;2023-01-20T03:13:11;101186.59;;;0.52;100.00
61018;BME280;48171;51.550;5.434;2023-01-20T03:15:51;101182.19;;;0.50;100.00
61018;BME280;48171;51.550;5.434;2023-01-20T03:18:19;101195.19;;;0.50;100.00
61018;BME280;48171;51.550;5.434;2023-01-20T03:20:45;101208.94;;;0.47;100.00
61018;BME280;48171;51.550;5.434;2023-01-20T03:23:10;101208.06;;;0.47;100.00
61018;BME280;48171;51.550;5.434;2023-01-20T03:25:36;101217.69;;;0.49;100.00
61018;BME280;48171;51.550;5.434;2023-01-20T03:28:03;101209.72;;;0.45;100.00
61018;BME280;48171;51.550;5.434;2023-01-20T03:30:28;101207.94;;;0.44;100.00
61018;BME280;48171;51.550;5.434;2023-01-20T03:32:54;101207.94;;;0.44;100.00
61018;BME280;48171;51.550;5.434;2023-01-20T03:35:20;101217.44;;;0.43;100.00
61018;BME280;48171;51.550;5.434;2023-01-20T03:37:46;101209.66;;;0.43;100.00
61018;BME280;48171;51.550;5.434;2023-01-20T03:40:11;101213.06;;;0.42;100.00
61018;BME280;48171;51.550;5.434;2023-01-20T03:42:57;101217.44;;;0.43;100.00
61018;BME280;48171;51.550;5.434;2023-01-20T03:45:31;101215.78;;;0.45;100.00
61018;BME280;48171;51.550;5.434;2023-01-20T03:48:10;101214.00;;;0.44;100.00
61018;BME280;48171;51.550;5.434;2023-01-20T03:51:01;101213.19;;;0.45;100.00
61018;BME280;48171;51.550;5.434;2023-01-20T03:53:37;101224.41;;;0.44;100.00
61018;BME280;48171;51.550;5.434;2023-01-20T03:56:25;101227.94;;;0.46;100.00
61018;BME280;48171;51.550;5.434;2023-01-20T03:58:53;101218.25;;;0.42;100.00
61018;BME280;48171;51.550;5.434;2023-01-20T04:01:24;101217.44;;;0.43;100.00
61018;BME280;48171;51.550;5.434;2023-01-20T04:03:52;101215.47;;;0.37;100.00
61018;BME280;48171;51.550;5.434;2023-01-20T04:06:20;101216.59;;;0.44;100.00
61018;BME280;48171;51.550;5.434;2023-01-20T04:08:54;101214.84;;;0.43;100.00
61018;BME280;48171;51.550;5.434;2023-01-20T04:11:20;101226.19;;;0.45;100.00
61018;BME280;48171;51.550;5.434;2023-01-20T04:13:45;101226.13;;;0.44;100.00
61018;BME280;48171;51.550;5.434;2023-01-20T04:16:15;101227.06;;;0.46;100.00
61018;BME280;48171;51.550;5.434;2023-01-20T04:18:41;101220.84;;;0.42;100.00
61018;BME280;48171;51.550;5.434;2023-01-20T04:21:09;101224.41;;;0.44;100.00
61018;BME280;48171;51.550;5.434;2023-01-20T04:23:42;101216.59;;;0.44;100.00
61018;BME280;48171;51.550;5.434;2023-01-20T04:26:10;101221.81;;;0.44;100.00
61018;BME280;48171;51.550;5.434;2023-01-20T04:28:35;101219.09;;;0.41;100.00
61018;BME280;48171;51.550;5.434;2023-01-20T04:31:00;101226.06;;;0.42;100.00
61018;BME280;48171;51.550;5.434;2023-01-20T04:33:26;101228.63;;;0.41;100.00
61018;BME280;48171;51.550;5.434;2023-01-20T04:35:51;101225.25;;;0.43;100.00
61018;BME280;48171;51.550;5.434;2023-01-20T04:38:16;101222.50;;;0.40;100.00
61018;BME280;48171;51.550;5.434;2023-01-20T04:40:42;101231.31;;;0.44;100.00
61018;BME280;48171;51.550;5.434;2023-01-20T04:43:07;101229.34;;;0.38;100.00
61018;BME280;48171;51.550;5.434;2023-01-20T04:45:34;101231.78;;;0.33;100.00
61018;BME280;48171;51.550;5.434;2023-01-20T04:47:59;101236.97;;;0.33;100.00
61018;BME280;48171;51.550;5.434;2023-01-20T04:50:24;101243.75;;;0.30;100.00
61018;BME280;48171;51.550;5.434;2023-01-20T04:52:53;101244.59;;;0.29;100.00
61018;BME280;48171;51.550;5.434;2023-01-20T04:55:19;101242.72;;;0.26;100.00
61018;BME280;48171;51.550;5.434;2023-01-20T04:57:46;101257.69;;;0.32;100.00
61018;BME280;48171;51.550;5.434;2023-01-20T05:00:11;101242.97;;;0.32;100.00
61018;BME280;48171;51.550;5.434;2023-01-20T05:02:42;101242.97;;;0.32;100.00
61018;BME280;48171;51.550;5.434;2023-01-20T05:05:08;101249.09;;;0.33;100.00
61018;BME280;48171;51.550;5.434;2023-01-20T05:07:33;101250.03;;;0.35;100.00
61018;BME280;48171;51.550;5.434;2023-01-20T05:09:58;101247.50;;;0.36;100.00
61018;BME280;48171;51.550;5.434;2023-01-20T05:12:23;101248.31;;;0.35;100.00
61018;BME280;48171;51.550;5.434;2023-01-20T05:14:49;101243.97;;;0.34;100.00
61018;BME280;48171;51.550;5.434;2023-01-20T05:17:14;101244.78;;;0.33;100.00
61018;BME280;48171;51.550;5.434;2023-01-20T05:19:39;101250.84;;;0.34;100.00
61018;BME280;48171;51.550;5.434;2023-01-20T05:22:04;101259.50;;;0.33;100.00
61018;BME280;48171;51.550;5.434;2023-01-20T05:24:30;101261.13;;;0.31;100.00
61018;BME280;48171;51.550;5.434;2023-01-20T05:26:59;101265.50;;;0.32;100.00
61018;BME280;48171;51.550;5.434;2023-01-20T05:29:24;101265.50;;;0.32;100.00
61018;BME280;48171;51.550;5.434;2023-01-20T05:31:49;101260.22;;;0.30;100.00
61018;BME280;48171;51.550;5.434;2023-01-20T05:34:15;101254.16;;;0.30;100.00
61018;BME280;48171;51.550;5.434;2023-01-20T05:36:40;101262.16;;;0.34;100.00
61018;BME280;48171;51.550;5.434;2023-01-20T05:39:05;101257.78;;;0.33;100.00
61018;BME280;48171;51.550;5.434;2023-01-20T05:41:31;101262.00;;;0.31;100.00
61018;BME280;48171;51.550;5.434;2023-01-20T05:43:56;101269.03;;;0.34;100.00
61018;BME280;48171;51.550;5.434;2023-01-20T05:46:21;101260.38;;;0.33;100.00
61018;BME280;48171;51.550;5.434;2023-01-20T05:48:47;101268.22;;;0.35;100.00
61018;BME280;48171;51.550;5.434;2023-01-20T05:51:12;101266.38;;;0.32;100.00
61018;BME280;48171;51.550;5.434;2023-01-20T05:53:37;101254.22;;;0.31;100.00
61018;BME280;48171;51.550;5.434;2023-01-20T05:56:04;101266.59;;;0.37;100.00
61018;BME280;48171;51.550;5.434;2023-01-20T05:58:30;101265.63;;;0.35;100.00
61018;BME280;48171;51.550;5.434;2023-01-20T06:01:07;101265.63;;;0.35;100.00
61018;BME280;48171;51.550;5.434;2023-01-20T06:03:33;101268.09;;;0.32;100.00
61018;BME280;48171;51.550;5.434;2023-01-20T06:06:00;101273.44;;;0.35;100.00
61018;BME280;48171;51.550;5.434;2023-01-20T06:08:25;101273.38;;;0.33;100.00
61018;BME280;48171;51.550;5.434;2023-01-20T06:10:52;101272.56;;;0.34;100.00
61018;BME280;48171;51.550;5.434;2023-01-20T06:13:17;101272.41;;;0.31;100.00
61018;BME280;48171;51.550;5.434;2023-01-20T06:15:42;101276.78;;;0.32;100.00
61018;BME280;48171;51.550;5.434;2023-01-20T06:18:08;101279.44;;;0.34;100.00
61018;BME280;48171;51.550;5.434;2023-01-20T06:20:37;101278.69;;;0.36;100.00
61018;BME280;48171;51.550;5.434;2023-01-20T06:23:02;101281.34;;;0.38;100.00
61018;BME280;48171;51.550;5.434;2023-01-20T06:25:27;101279.59;;;0.37;100.00
61018;BME280;48171;51.550;5.434;2023-01-20T06:27:52;101276.97;;;0.37;100.00
61018;BME280;48171;51.550;5.434;2023-01-20T06:30:18;101284.00;;;0.39;100.00
61018;BME280;48171;51.550;5.434;2023-01-20T06:32:45;101284.00;;;0.39;100.00
61018;BME280;48171;51.550;5.434;2023-01-20T06:35:11;101288.44;;;0.42;100.00
61018;BME280;48171;51.550;5.434;2023-01-20T06:37:36;101282.25;;;0.38;100.00
61018;BME280;48171;51.550;5.434;2023-01-20T06:40:01;101279.59;;;0.37;100.00
61018;BME280;48171;51.550;5.434;2023-01-20T06:42:27;101263.03;;;0.35;100.00
61018;BME280;48171;51.550;5.434;2023-01-20T06:44:52;101266.50;;;0.35;100.00
61018;BME280;48171;51.550;5.434;2023-01-20T06:47:17;101272.56;;;0.34;100.00
61018;BME280;48171;51.550;5.434;2023-01-20T06:49:42;101274.25;;;0.34;100.00
61018;BME280;48171;51.550;5.434;2023-01-20T06:52:08;101273.28;;;0.32;100.00
61018;BME280;48171;51.550;5.434;2023-01-20T06:54:33;101282.94;;;0.34;100.00
61018;BME280;48171;51.550;5.434;2023-01-20T06:56:59;101284.72;;;0.35;100.00
61018;BME280;48171;51.550;5.434;2023-01-20T06:59:24;101274.38;;;0.37;100.00
61018;BME280;48171;51.550;5.434;2023-01-20T07:01:49;101276.97;;;0.37;100.00
61018;BME280;48171;51.550;5.434;2023-01-20T07:04:14;101282.28;;;0.40;100.00
61018;BME280;48171;51.550;5.434;2023-01-20T07:06:40;101271.09;;;0.41;100.00
61018;BME280;48171;51.550;5.434;2023-01-20T07:09:10;101279.75;;;0.42;100.00
61018;BME280;48171;51.550;5.434;2023-01-20T07:11:36;101281.47;;;0.41;100.00
61018;BME280;48171;51.550;5.434;2023-01-20T07:14:03;101284.16;;;0.43;100.00
61018;BME280;48171;51.550;5.434;2023-01-20T07:16:28;101279.69;;;0.40;100.00
61018;BME280;48171;51.550;5.434;2023-01-20T07:18:54;101288.25;;;0.37;100.00
61018;BME280;48171;51.550;5.434;2023-01-20T07:21:20;101296.19;;;0.41;100.00
61018;BME280;48171;51.550;5.434;2023-01-20T07:23:46;101292.66;;;0.38;100.00
61018;BME280;48171;51.550;5.434;2023-01-20T07:26:14;101292.56;;;0.37;100.00
61018;BME280;48171;51.550;5.434;2023-01-20T07:28:40;101292.44;;;0.34;100.00
61018;BME280;48171;51.550;5.434;2023-01-20T07:31:07;101303.75;;;0.34;100.00
61018;BME280;48171;51.550;5.434;2023-01-20T07:33:33;101302.75;;;0.32;100.00
61018;BME280;48171;51.550;5.434;2023-01-20T07:35:59;101311.53;;;0.34;100.00
61018;BME280;48171;51.550;5.434;2023-01-20T07:38:25;101322.94;;;0.38;100.00
61018;BME280;48171;51.550;5.434;2023-01-20T07:40:50;101317.72;;;0.38;100.00
61018;BME280;48171;51.550;5.434;2023-01-20T07:43:16;101318.63;;;0.38;100.00
61018;BME280;48171;51.550;5.434;2023-01-20T07:45:41;101315.97;;;0.37;100.00
61018;BME280;48171;51.550;5.434;2023-01-20T07:48:07;101321.25;;;0.38;100.00
61018;BME280;48171;51.550;5.434;2023-01-20T07:50:36;101325.50;;;0.36;100.00
61018;BME280;48171;51.550;5.434;2023-01-20T07:53:02;101328.13;;;0.38;100.00
61018;BME280;48171;51.550;5.434;2023-01-20T07:55:27;101330.72;;;0.38;100.00
61018;BME280;48171;51.550;5.434;2023-01-20T07:57:53;101322.03;;;0.37;100.00
61018;BME280;48171;51.550;5.434;2023-01-20T08:00:18;101326.38;;;0.37;100.00
61018;BME280;48171;51.550;5.434;2023-01-20T08:02:44;101335.22;;;0.42;100.00
61018;BME280;48171;51.550;5.434;2023-01-20T08:05:09;101330.94;;;0.43;100.00
61018;BME280;48171;51.550;5.434;2023-01-20T08:07:35;101328.34;;;0.43;100.00
61018;BME280;48171;51.550;5.434;2023-01-20T08:10:00;101329.22;;;0.43;100.00
61018;BME280;48171;51.550;5.434;2023-01-20T08:12:27;101330.25;;;0.47;100.00
61018;BME280;48171;51.550;5.434;2023-01-20T08:14:53;101333.56;;;0.44;100.00
61018;BME280;48171;51.550;5.434;2023-01-20T08:17:18;101335.44;;;0.47;100.00
61018;BME280;48171;51.550;5.434;2023-01-20T08:19:43;101330.25;;;0.47;100.00
61018;BME280;48171;51.550;5.434;2023-01-20T08:22:08;101335.38;;;0.45;100.00
61018;BME280;48171;51.550;5.434;2023-01-20T08:24:34;101336.00;;;0.39;100.00
61018;BME280;48171;51.550;5.434;2023-01-20T08:26:59;101333.31;;;0.38;100.00
61018;BME280;48171;51.550;5.434;2023-01-20T08:29:24;101332.59;;;0.41;100.00
61018;BME280;48171;51.550;5.434;2023-01-20T08:31:50;101328.19;;;0.39;100.00
61018;BME280;48171;51.550;5.434;2023-01-20T08:34:15;101336.75;;;0.37;100.00
61018;BME280;48171;51.550;5.434;2023-01-20T08:36:43;101331.50;;;0.35;100.00
61018;BME280;48171;51.550;5.434;2023-01-20T08:39:13;101338.47;;;0.36;100.00
61018;BME280;48171;51.550;5.434;2023-01-20T08:41:41;101341.81;;;0.34;100.00
61018;BME280;48171;51.550;5.434;2023-01-20T08:44:08;101342.66;;;0.33;100.00
61018;BME280;48171;51.550;5.434;2023-01-20T08:46:33;101340.16;;;0.36;100.00
61018;BME280;48171;51.550;5.434;2023-01-20T08:48:59;101347.97;;;0.36;100.00
61018;BME280;48171;51.550;5.434;2023-01-20T08:51:27;101345.31;;;0.34;100.00
61018;BME280;48171;51.550;5.434;2023-01-20T08:53:53;101353.22;;;0.37;100.00
61018;BME280;48171;51.550;5.434;2023-01-20T08:56:18;101343.69;;;0.36;100.00
61018;BME280;48171;51.550;5.434;2023-01-20T08:58:44;101354.94;;;0.37;100.00
61018;BME280;48171;51.550;5.434;2023-01-20T09:01:22;101361.19;;;0.41;100.00
61018;BME280;48171;51.550;5.434;2023-01-20T09:03:48;101356.78;;;0.39;100.00
61018;BME280;48171;51.550;5.434;2023-01-20T09:06:13;101363.00;;;0.43;100.00
61018;BME280;48171;51.550;5.434;2023-01-20T09:08:39;101360.53;;;0.46;100.00
61018;BME280;48171;51.550;5.434;2023-01-20T09:11:10;101365.88;;;0.49;100.00
61018;BME280;48171;51.550;5.434;2023-01-20T09:13:37;101370.91;;;0.46;100.00
61018;BME280;48171;51.550;5.434;2023-01-20T09:16:02;101357.88;;;0.45;100.00
61018;BME280;48171;51.550;5.434;2023-01-20T09:18:33;101366.75;;;0.50;100.00
61018;BME280;48171;51.550;5.434;2023-01-20T09:20:59;101370.19;;;0.49;100.00
61018;BME280;48171;51.550;5.434;2023-01-20T09:23:26;101371.00;;;0.48;100.00
61018;BME280;48171;51.550;5.434;2023-01-20T09:25:52;101365.78;;;0.48;100.00
61018;BME280;48171;51.550;5.434;2023-01-20T09:28:17;101360.53;;;0.46;100.00
61018;BME280;48171;51.550;5.434;2023-01-20T09:30:42;101371.88;;;0.48;100.00
61018;BME280;48171;51.550;5.434;2023-01-20T09:33:12;101371.69;;;0.44;100.00
61018;BME280;48171;51.550;5.434;2023-01-20T09:35:38;101369.78;;;0.39;100.00
61018;BME280;48171;51.550;5.434;2023-01-20T09:38:03;101368.06;;;0.40;100.00
61018;BME280;48171;51.550;5.434;2023-01-20T09:49:58;101376.81;;;0.42;100.00
61018;BME280;48171;51.550;5.434;2023-01-20T09:52:43;101376.88;;;0.44;100.00
61018;BME280;48171;51.550;5.434;2023-01-20T09:55:33;101369.00;;;0.42;100.00
61018;BME280;48171;51.550;5.434;2023-01-20T09:58:08;101376.00;;;0.43;100.00
61018;BME280;48171;51.550;5.434;2023-01-20T10:00:38;101364.59;;;0.39;100.00
61018;BME280;48171;51.550;5.434;2023-01-20T10:03:33;101377.03;;;0.47;100.00
61018;BME280;48171;51.550;5.434;2023-01-20T10:06:05;101370.03;;;0.46;100.00
61018;BME280;48171;51.550;5.434;2023-01-20T10:08:41;101369.16;;;0.45;100.00
61018;BME280;48171;51.550;5.434;2023-01-20T10:11:12;101365.69;;;0.45;100.00
61018;BME280;48171;51.550;5.434;2023-01-20T10:13:52;101366.63;;;0.47;100.00
61018;BME280;48171;51.550;5.434;2023-01-20T10:16:28;101367.25;;;0.41;100.00
61018;BME280;48171;51.550;5.434;2023-01-20T10:19:00;101375.13;;;0.43;100.00
61018;BME280;48171;51.550;5.434;2023-01-20T10:21:46;101372.66;;;0.46;100.00
61018;BME280;48171;51.550;5.434;2023-01-20T10:24:23;101376.13;;;0.46;100.00
61018;BME280;48171;51.550;5.434;2023-01-20T10:27:01;101371.75;;;0.45;100.00
61018;BME280;48171;51.550;5.434;2023-01-20T10:29:50;101375.16;;;0.44;100.00
61018;BME280;48171;51.550;5.434;2023-01-20T10:32:33;101372.72;;;0.47;100.00
61018;BME280;48171;51.550;5.434;2023-01-20T10:35:07;101366.50;;;0.44;100.00
61018;BME280;48171;51.550;5.434;2023-01-20T10:37:35;101370.66;;;0.40;100.00
61018;BME280;48171;51.550;5.434;2023-01-20T10:40:24;101364.66;;;0.41;100.00
61018;BME280;48171;51.550;5.434;2023-01-20T10:42:57;101368.81;;;0.37;100.00
61018;BME280;48171;51.550;5.434;2023-01-20T10:45:49;101369.66;;;0.36;100.00
61018;BME280;48171;51.550;5.434;2023-01-20T10:51:31;101368.81;;;0.37;100.00
61018;BME280;48171;51.550;5.434;2023-01-20T10:56:45;101374.34;;;0.45;100.00
61018;BME280;48171;51.550;5.434;2023-01-20T10:59:28;101379.69;;;0.48;100.00
61018;BME280;48171;51.550;5.434;2023-01-20T11:01:56;101370.19;;;0.49;100.00
61018;BME280;48171;51.550;5.434;2023-01-20T11:04:25;101372.09;;;0.53;100.00
61018;BME280;48171;51.550;5.434;2023-01-20T11:06:54;101371.31;;;0.55;100.00
61018;BME280;48171;51.550;5.434;2023-01-20T11:09:40;101380.19;;;0.60;100.00
61018;BME280;48171;51.550;5.434;2023-01-20T11:12:13;101380.19;;;0.60;100.00
61018;BME280;48171;51.550;5.434;2023-01-20T11:14:39;101381.97;;;0.62;100.00
61018;BME280;48171;51.550;5.434;2023-01-20T11:17:06;101376.78;;;0.62;100.00
61018;BME280;48171;51.550;5.434;2023-01-20T11:19:56;101374.38;;;0.66;100.00
61018;BME280;48171;51.550;5.434;2023-01-20T11:24:55;101387.69;;;0.74;100.00
61018;BME280;48171;51.550;5.434;2023-01-20T11:27:26;101389.47;;;0.75;100.00
61018;BME280;48171;51.550;5.434;2023-01-20T11:29:56;101387.69;;;0.74;100.00
61018;BME280;48171;51.550;5.434;2023-01-20T11:34:53;101392.34;;;0.81;100.00
61018;BME280;48171;51.550;5.434;2023-01-20T11:37:20;101393.47;;;0.88;100.00
61018;BME280;48171;51.550;5.434;2023-01-20T11:42:22;101394.50;;;0.91;100.00
61018;BME280;48171;51.550;5.434;2023-01-20T11:44:54;101389.47;;;0.96;100.00
61018;BME280;48171;51.550;5.434;2023-01-20T11:47:39;101381.84;;;1.00;100.00
61018;BME280;48171;51.550;5.434;2023-01-20T11:52:37;101388.56;;;1.16;100.00
61018;BME280;48171;51.550;5.434;2023-01-20T11:55:15;101383.59;;;1.23;100.00
61018;BME280;48171;51.550;5.434;2023-01-20T11:57:49;101378.69;;;1.30;100.00
61018;BME280;48171;51.550;5.434;2023-01-20T12:03:03;101386.91;;;1.41;100.00
61018;BME280;48171;51.550;5.434;2023-01-20T12:05:49;101384.59;;;1.49;100.00
61018;BME280;48171;51.550;5.434;2023-01-20T12:10:50;101382.66;;;1.66;100.00
61018;BME280;48171;51.550;5.434;2023-01-20T12:13:19;101394.03;;;1.68;100.00
61018;BME280;48171;51.550;5.434;2023-01-20T12:15:52;101396.72;;;1.71;100.00
61018;BME280;48171;51.550;5.434;2023-01-20T12:18:37;101393.34;;;1.73;100.00
61018;BME280;48171;51.550;5.434;2023-01-20T12:21:11;101401.38;;;1.79;100.00
61018;BME280;48171;51.550;5.434;2023-01-20T12:26:17;101391.41;;;1.90;100.00
61018;BME280;48171;51.550;5.434;2023-01-20T12:29:00;101391.63;;;1.96;100.00
61018;BME280;48171;51.550;5.434;2023-01-20T12:31:28;101387.56;;;2.05;100.00
61018;BME280;48171;51.550;5.434;2023-01-20T12:34:00;101398.22;;;2.11;100.00
61018;BME280;48171;51.550;5.434;2023-01-20T12:39:27;101400.88;;;2.12;100.00
61018;BME280;48171;51.550;5.434;2023-01-20T12:50:26;101409.13;;;2.00;100.00
61018;BME280;48171;51.550;5.434;2023-01-20T12:55:55;101419.75;;;1.83;100.00
61018;BME280;48171;51.550;5.434;2023-01-20T13:01:32;101416.78;;;1.73;100.00
61018;BME280;48171;51.550;5.434;2023-01-20T13:10:02;101420.81;;;1.65;100.00
61018;BME280;48171;51.550;5.434;2023-01-20T13:12:46;101417.19;;;1.62;100.00
61018;BME280;48171;51.550;5.434;2023-01-20T13:15:18;101416.31;;;1.61;100.00
61018;BME280;48171;51.550;5.434;2023-01-20T13:18:23;101411.25;;;1.64;100.00
61018;BME280;48171;51.550;5.434;2023-01-20T13:20:51;101407.63;;;1.60;100.00
61018;BME280;48171;51.550;5.434;2023-01-20T13:23:27;101413.72;;;1.61;100.00
61018;BME280;48171;51.550;5.434;2023-01-20T13:25:54;101412.59;;;1.54;100.00
61018;BME280;48171;51.550;5.434;2023-01-20T13:28:22;101409.88;;;1.51;100.00
61018;BME280;48171;51.550;5.434;2023-01-20T13:30:50;101412.44;;;1.50;100.00
61018;BME280;48171;51.550;5.434;2023-01-20T13:35:52;101408.22;;;1.53;100.00
61018;BME280;48171;51.550;5.434;2023-01-20T13:38:27;101425.09;;;1.63;100.00
61018;BME280;48171;51.550;5.434;2023-01-20T13:40:57;101414.59;;;1.62;100.00
61018;BME280;48171;51.550;5.434;2023-01-20T13:43:46;101418.16;;;1.64;100.00
61018;BME280;48171;51.550;5.434;2023-01-20T13:49:12;101426.09;;;1.67;100.00
61018;BME280;48171;51.550;5.434;2023-01-20T13:56:47;101439.06;;;1.65;100.00
61018;BME280;48171;51.550;5.434;2023-01-20T13:59:12;101438.19;;;1.65;100.00
61018;BME280;48171;51.550;5.434;2023-01-20T14:01:37;101443.44;;;1.66;100.00
61018;BME280;48171;51.550;5.434;2023-01-20T14:04:23;101445.22;;;1.67;100.00
61018;BME280;48171;51.550;5.434;2023-01-20T14:06:50;101439.97;;;1.66;100.00
61018;BME280;48171;51.550;5.434;2023-01-20T14:09:23;101446.94;;;1.67;100.00
61018;BME280;48171;51.550;5.434;2023-01-20T14:11:50;101454.69;;;1.65;100.00
61018;BME280;48171;51.550;5.434;2023-01-20T14:14:18;101461.69;;;1.66;100.00
61018;BME280;48171;51.550;5.434;2023-01-20T14:16:44;101467.63;;;1.64;100.00
61018;BME280;48171;51.550;5.434;2023-01-20T14:19:29;101474.56;;;1.63;100.00
61018;BME280;48171;51.550;5.434;2023-01-20T14:21:58;101478.84;;;1.61;100.00